createdAt,value
2022-09-11T00:04:20.272Z,25.27
2022-09-11T00:11:05.640Z,25.31
2022-09-11T00:17:54.801Z,25.29
2022-09-11T00:24:32.842Z,25.28
2022-09-11T00:31:12.046Z,25.28
2022-09-11T00:37:58.977Z,25.28
2022-09-11T00:44:48.228Z,25.25
2022-09-11T00:51:43.945Z,25.31
2022-09-11T00:58:39.982Z,25.32
2022-09-11T01:05:19.882Z,25.31
2022-09-11T01:12:03.115Z,25.28
2022-09-11T01:19:03.835Z,25.25
2022-09-11T01:26:04.959Z,25.26
2022-09-11T01:33:25.045Z,25.25
2022-09-11T01:40:52.363Z,25.28
2022-09-11T01:47:53.098Z,25.27
2022-09-11T01:54:56.897Z,25.29
2022-09-11T02:02:12.573Z,25.3
2022-09-11T02:09:30.987Z,25.28
2022-09-11T02:16:39.348Z,25.29
2022-09-11T02:23:33.964Z,25.25
2022-09-11T02:30:16.995Z,25.25
2022-09-11T02:37:01.606Z,25.26
2022-09-11T02:44:09.025Z,25.26
2022-09-11T02:51:27.245Z,25.29
2022-09-11T02:58:47.897Z,25.23
2022-09-11T03:05:48.951Z,25.21
2022-09-11T03:12:36.980Z,25.25
2022-09-11T03:19:11.951Z,25.24
2022-09-11T03:25:39.999Z,25.24
2022-09-11T03:32:11.271Z,25.25
2022-09-11T03:38:43.046Z,25.24
2022-09-11T03:45:14.032Z,25.24
2022-09-11T03:51:51.669Z,25.22
2022-09-11T03:58:20.952Z,25.23
2022-09-11T04:05:11.508Z,25.18
2022-09-11T04:11:54.124Z,25.22
2022-09-11T04:18:21.063Z,25.19
2022-09-11T04:24:56.598Z,25.19
2022-09-11T04:31:39.290Z,25.18
2022-09-11T04:38:12.135Z,25.21
2022-09-11T04:44:41.068Z,25.23
2022-09-11T04:51:13.067Z,25.22
2022-09-11T04:58:00.914Z,25.16
2022-09-11T05:04:35.131Z,25.21
2022-09-11T05:11:21.001Z,25.18
2022-09-11T05:17:59.897Z,25.17
2022-09-11T05:24:37.647Z,25.2
2022-09-11T05:31:20.008Z,25.21
2022-09-11T05:38:00.524Z,25.2
2022-09-11T05:44:36.062Z,25.19
2022-09-11T05:51:13.003Z,25.21
2022-09-11T05:57:46.256Z,25.28
2022-09-11T06:04:22.249Z,25.18
2022-09-11T06:10:54.126Z,25.18
2022-09-11T06:17:36.459Z,25.22
2022-09-11T06:24:09.702Z,25.32
2022-09-11T06:30:44.338Z,25.32
2022-09-11T06:37:14.220Z,25.21
2022-09-11T06:43:50.057Z,25.24
2022-09-11T06:50:19.159Z,25.2
2022-09-11T06:56:55.654Z,25.18
2022-09-11T07:03:36.506Z,25.37
2022-09-11T07:10:17.047Z,25.2
2022-09-11T07:16:48.680Z,25.18
2022-09-11T07:23:28.720Z,25.23
2022-09-11T07:30:01.190Z,25.24
2022-09-11T07:36:33.680Z,25.34
2022-09-11T07:43:00.590Z,25.2
2022-09-11T07:49:39.511Z,25.33
2022-09-11T07:56:14.185Z,25.24
2022-09-11T08:02:52.308Z,25.27
2022-09-11T08:09:20.834Z,25.4
2022-09-11T08:15:52.010Z,25.3
2022-09-11T08:22:32.159Z,25.25
2022-09-11T08:29:08.616Z,25.28
2022-09-11T08:35:44.697Z,25.24
2022-09-11T08:42:17.328Z,25.33
2022-09-11T08:49:15.661Z,25.3
2022-09-11T08:56:22.207Z,25.35
2022-09-11T09:03:34.300Z,25.34
2022-09-11T09:10:39.557Z,25.36
2022-09-11T09:17:43.196Z,25.27
2022-09-11T09:24:55.380Z,25.36
2022-09-11T09:32:02.418Z,25.37
2022-09-11T09:39:11.616Z,25.32
2022-09-11T09:46:15.396Z,25.39
2022-09-11T09:53:10.222Z,25.38
2022-09-11T10:00:12.135Z,25.41
2022-09-11T10:07:05.373Z,25.41
2022-09-11T10:14:12.474Z,25.46
2022-09-11T10:21:29.301Z,25.47
2022-09-11T10:28:21.164Z,25.43
2022-09-11T10:35:18.254Z,25.43
2022-09-11T10:42:14.197Z,25.43
2022-09-11T10:49:12.226Z,25.45
2022-09-11T10:56:16.081Z,25.44
2022-09-11T11:03:17.167Z,25.43
2022-09-11T11:10:22.242Z,25.43
2022-09-11T11:17:37.180Z,25.41
2022-09-11T11:24:49.333Z,25.45
2022-09-11T11:32:03.276Z,25.42
2022-09-11T11:39:27.523Z,25.46
2022-09-11T11:46:29.908Z,25.46
2022-09-11T11:53:47.284Z,25.46
2022-09-11T12:00:55.230Z,25.45
2022-09-11T12:08:05.857Z,25.51
2022-09-11T12:15:12.273Z,25.53
2022-09-11T12:22:20.730Z,25.5
2022-09-11T12:29:25.510Z,25.52
2022-09-11T12:36:28.324Z,25.54
2022-09-11T12:43:41.898Z,25.59
2022-09-11T12:50:40.255Z,25.63
2022-09-11T12:57:39.901Z,25.76
2022-09-11T13:04:39.751Z,25.76
2022-09-11T13:11:50.742Z,25.79
2022-09-11T13:18:55.657Z,25.83
2022-09-11T13:25:52.278Z,25.95
2022-09-11T13:32:46.311Z,26.04
2022-09-11T13:39:38.203Z,26.06
2022-09-11T13:46:43.338Z,26.11
2022-09-11T13:53:37.177Z,26.3
2022-09-11T14:00:31.670Z,26.25
2022-09-11T14:07:22.299Z,26.41
2022-09-11T14:14:38.524Z,26.55
2022-09-11T14:21:43.330Z,26.86
2022-09-11T14:28:41.196Z,26.99
2022-09-11T14:35:46.595Z,27.03
2022-09-11T14:42:50.732Z,27.15
2022-09-11T14:49:32.403Z,27.26
2022-09-11T14:56:10.231Z,27.29
2022-09-11T15:02:56.272Z,27.43
2022-09-11T15:09:38.019Z,27.47
2022-09-11T15:16:02.442Z,27.48
2022-09-11T15:22:33.366Z,27.44
2022-09-11T15:29:15.312Z,27.5
2022-09-11T15:35:46.806Z,27.53
2022-09-11T15:42:18.687Z,27.54
2022-09-11T15:48:49.405Z,27.55
2022-09-11T15:55:25.361Z,27.53
2022-09-11T16:02:11.431Z,27.53
2022-09-11T16:08:56.923Z,27.51
2022-09-11T16:15:38.612Z,27.48
2022-09-11T16:22:09.971Z,27.44
2022-09-11T16:28:45.979Z,27.41
2022-09-11T16:35:23.827Z,27.37
2022-09-11T16:42:02.384Z,27.29
2022-09-11T16:48:55.026Z,27.26
2022-09-11T16:55:43.426Z,27.18
2022-09-11T17:02:15.516Z,27.15
2022-09-11T17:09:09.356Z,27.14
2022-09-11T17:15:53.672Z,27.12
2022-09-11T17:22:25.396Z,27.04
2022-09-11T17:28:51.504Z,27.01
2022-09-11T17:35:17.270Z,26.96
2022-09-11T17:41:58.334Z,26.99
2022-09-11T17:48:34.341Z,26.91
2022-09-11T17:55:18.004Z,26.87
2022-09-11T18:02:03.617Z,26.81
2022-09-11T18:08:41.468Z,26.89
2022-09-11T18:15:19.301Z,26.79
2022-09-11T18:21:50.718Z,26.77
2022-09-11T18:28:25.311Z,26.71
2022-09-11T18:35:00.476Z,26.67
2022-09-11T18:41:37.416Z,26.63
2022-09-11T18:48:19.963Z,26.62
2022-09-11T18:54:54.481Z,26.62
2022-09-11T19:01:43.042Z,26.67
2022-09-11T19:08:14.358Z,26.69
2022-09-11T19:15:01.471Z,26.62
2022-09-11T19:21:53.491Z,26.57
2022-09-11T19:28:26.444Z,26.52
2022-09-11T19:35:07.947Z,26.5
2022-09-11T19:42:00.634Z,26.46
2022-09-11T19:48:43.633Z,26.43
2022-09-11T19:55:17.496Z,26.4
2022-09-11T20:01:48.231Z,26.36
2022-09-11T20:08:16.244Z,26.36
2022-09-11T20:14:42.676Z,26.33
2022-09-11T20:21:40.919Z,26.32
2022-09-11T20:28:18.496Z,26.33
2022-09-11T20:35:00.620Z,26.3
2022-09-11T20:41:32.080Z,26.21
2022-09-11T20:48:11.381Z,26.17
2022-09-11T20:54:51.475Z,26.15
2022-09-11T21:01:23.616Z,26.15
2022-09-11T21:07:48.978Z,26.16
2022-09-11T21:14:23.536Z,26.14
2022-09-11T21:20:58.418Z,26.14
2022-09-11T21:27:34.893Z,26.11
2022-09-11T21:34:02.541Z,26.1
2022-09-11T21:40:39.632Z,26.08
2022-09-11T21:47:18.652Z,26.06
2022-09-11T21:53:55.969Z,26.07
2022-09-11T22:00:21.773Z,26.03
2022-09-11T22:07:00.337Z,26.07
2022-09-11T22:13:23.827Z,26.02
2022-09-11T22:20:08.543Z,26.01
2022-09-11T22:26:40.111Z,25.97
2022-09-11T22:33:26.547Z,25.94
2022-09-11T22:39:58.592Z,25.96
2022-09-11T22:46:27.951Z,25.94
2022-09-11T22:52:56.566Z,25.92
2022-09-11T22:59:43.611Z,25.92
2022-09-11T23:06:17.462Z,25.92
2022-09-11T23:12:50.558Z,25.89
2022-09-11T23:19:24.590Z,25.91
2022-09-11T23:25:53.698Z,25.9
2022-09-11T23:32:32.581Z,25.92
2022-09-11T23:38:59.557Z,25.85
2022-09-11T23:45:33.537Z,25.86
2022-09-11T23:52:11.556Z,25.87
2022-09-11T23:58:41.567Z,25.87
